This is the latest recevied weather packets stored in our database for station/object KB9ZGZ. If no packets are shown the sender has not sent any weather packets the latest 10 day(s).
| Time | Temp. | Humidity | Pressure | Rain* | Wind** | Luminosity | Snow |
|---|---|---|---|---|---|---|---|
| 1777841124 | 21.11° C | 43% | 1005.5 hPa | 0 mm | - | - | - |
| 1777840241 | 20.56° C | 44% | 1005.6 hPa | 0 mm | - | - | - |
| 1777839317 | 20.56° C | 46% | 1005.9 hPa | 0 mm | - | - | - |
| 1777838414 | 20° C | 47% | 1006.2 hPa | 0 mm | - | - | - |
| 1777837526 | 19.44° C | 46% | 1006.1 hPa | 0 mm | - | - | - |
| 1777836611 | 19.44° C | 45% | 1006.6 hPa | 0 mm | - | - | - |
| 1777835707 | 18.89° C | 46% | 1006.5 hPa | 0 mm | - | - | - |
| 1777834804 | 18.89° C | 45% | 1006.7 hPa | 0 mm | - | - | - |
| 1777833902 | 18.33° C | 48% | 1006.7 hPa | 0 mm | - | - | - |
| 1777833002 | 18.33° C | 48% | 1007.2 hPa | 0 mm | - | - | - |
| 1777832162 | 17.78° C | 49% | 1007.7 hPa | 0 mm | - | - | - |
| 1777831256 | 17.78° C | 48% | 1007.9 hPa | 0 mm | - | - | - |
| 1777830353 | 17.78° C | 47% | 1008.3 hPa | 0 mm | - | - | - |
| 1777829451 | 17.78° C | 49% | 1009.5 hPa | 0 mm | - | - | - |
| 1777828549 | 17.78° C | 52% | 1010.2 hPa | 0 mm | - | - | - |
| 1777827644 | 17.22° C | 53% | 1010.4 hPa | 0 mm | - | - | - |
| 1777826743 | 16.67° C | 54% | 1010.6 hPa | 0.25 mm | - | - | - |
| 1777825844 | 16.11° C | 56% | 1010.4 hPa | 0.25 mm | - | - | - |
| 1777824940 | 16.11° C | 56% | 1010.4 hPa | 0.25 mm | - | - | - |
| 1777824037 | 16.11° C | 54% | 1010.7 hPa | 0.25 mm | - | - | - |
| 1777823151 | 16.11° C | 58% | 1011.4 hPa | 0.25 mm | - | - | - |
| 1777822232 | 15.56° C | 57% | 1011.5 hPa | 0.25 mm | - | - | - |
| 1777821331 | 15° C | 57% | 1011.7 hPa | 0.25 mm | - | - | - |
| 1777820443 | 14.44° C | 60% | 1011.8 hPa | 0.25 mm | - | - | - |
| 1777819528 | 13.89° C | 63% | 1012 hPa | 0.25 mm | - | - | - |
* Rain since midnight (hover to see other rain measurements)
** Current wind speed in m/s (hover to see current wind gust speed)